createdAt,value
2018-09-01T00:00:57.721Z,3.90
2018-09-01T00:03:24.880Z,3.60
2018-09-01T00:05:52.114Z,3.83
2018-09-01T00:08:20.309Z,4.90
2018-09-01T00:10:47.446Z,4.30
2018-09-01T00:13:14.603Z,4.20
2018-09-01T00:15:41.704Z,4.73
2018-09-01T00:18:08.825Z,5.10
2018-09-01T00:20:35.938Z,4.40
2018-09-01T00:23:03.133Z,3.73
2018-09-01T00:25:30.251Z,4.00
2018-09-01T00:27:57.374Z,3.60
2018-09-01T00:30:24.549Z,3.23
2018-09-01T00:32:51.657Z,3.93
2018-09-01T00:35:18.765Z,3.50
2018-09-01T00:37:51.457Z,3.60
2018-09-01T00:40:18.633Z,3.53
2018-09-01T00:42:45.744Z,3.67
2018-09-01T00:45:12.894Z,3.60
2018-09-01T00:47:40.053Z,3.30
2018-09-01T00:50:07.210Z,3.60
2018-09-01T00:52:34.376Z,3.43
2018-09-01T00:55:01.557Z,3.70
2018-09-01T00:57:28.656Z,3.67
2018-09-01T00:59:55.851Z,3.30
2018-09-01T01:02:22.988Z,3.40
2018-09-01T01:04:50.218Z,3.43
2018-09-01T01:07:17.706Z,3.40
2018-09-01T01:09:45.182Z,3.40
2018-09-01T01:12:12.575Z,3.47
2018-09-01T01:14:39.733Z,3.30
2018-09-01T01:17:06.931Z,3.60
2018-09-01T01:19:34.030Z,3.50
2018-09-01T01:22:01.201Z,3.20
2018-09-01T01:24:28.322Z,3.20
2018-09-01T01:26:55.940Z,3.10
2018-09-01T01:29:24.169Z,3.80
2018-09-01T01:31:51.687Z,3.10
2018-09-01T01:34:18.781Z,3.30
2018-09-01T01:36:45.922Z,3.97
2018-09-01T01:39:13.056Z,3.40
2018-09-01T01:41:40.188Z,3.43
2018-09-01T01:44:07.330Z,3.30
2018-09-01T01:46:34.488Z,3.30
2018-09-01T01:49:01.591Z,3.60
2018-09-01T01:51:28.706Z,3.27
2018-09-01T01:53:55.850Z,3.37
2018-09-01T01:56:23.001Z,3.40
2018-09-01T01:58:50.170Z,3.03
2018-09-01T02:01:17.302Z,3.50
2018-09-01T02:03:44.497Z,3.20
2018-09-01T02:06:11.621Z,3.27
2018-09-01T02:08:39.212Z,3.40
2018-09-01T02:11:06.336Z,2.93
2018-09-01T02:13:33.489Z,3.43
2018-09-01T02:16:00.770Z,3.20
2018-09-01T02:18:27.904Z,3.87
2018-09-01T02:20:54.999Z,3.17
2018-09-01T02:23:22.170Z,3.73
2018-09-01T02:25:49.307Z,3.30
2018-09-01T02:28:16.445Z,3.33
2018-09-01T02:30:43.586Z,3.37
2018-09-01T02:33:11.019Z,3.30
2018-09-01T02:35:38.135Z,2.80
2018-09-01T02:38:05.254Z,3.20
2018-09-01T02:40:32.401Z,3.10
2018-09-01T02:42:59.502Z,2.97
2018-09-01T02:45:26.639Z,3.27
2018-09-01T02:47:53.756Z,3.10
2018-09-01T02:50:20.907Z,2.93
2018-09-01T02:52:48.034Z,2.50
2018-09-01T02:55:15.194Z,3.17
2018-09-01T02:57:42.299Z,2.73
2018-09-01T03:00:15.076Z,2.77
2018-09-01T03:02:43.580Z,2.70
2018-09-01T03:05:11.320Z,2.60
2018-09-01T03:07:38.418Z,2.77
2018-09-01T03:10:05.629Z,2.90
2018-09-01T03:12:32.743Z,3.03
2018-09-01T03:14:59.877Z,2.73
2018-09-01T03:17:26.992Z,3.20
2018-09-01T03:19:54.142Z,3.30
2018-09-01T03:22:21.256Z,2.93
2018-09-01T03:24:48.422Z,3.30
2018-09-01T03:27:15.550Z,3.17
2018-09-01T03:29:42.677Z,3.47
2018-09-01T03:32:09.815Z,3.00
2018-09-01T03:34:36.900Z,3.00
2018-09-01T03:37:04.134Z,2.67
2018-09-01T03:39:31.321Z,3.03
2018-09-01T03:41:58.472Z,3.20
2018-09-01T03:44:25.576Z,2.87
2018-09-01T03:46:52.714Z,3.17
2018-09-01T03:49:19.865Z,2.83
2018-09-01T03:51:47.025Z,3.00
2018-09-01T03:54:14.169Z,3.10
2018-09-01T03:56:41.301Z,2.87
2018-09-01T03:59:08.465Z,2.60
2018-09-01T04:01:35.618Z,3.00
2018-09-01T04:04:02.726Z,2.70
2018-09-01T04:06:29.853Z,3.07
2018-09-01T04:08:57.005Z,3.20
2018-09-01T04:11:24.197Z,2.73
2018-09-01T04:13:51.317Z,2.90
2018-09-01T04:16:18.439Z,2.97
2018-09-01T04:18:45.572Z,2.90
2018-09-01T04:21:12.701Z,3.30
2018-09-01T04:23:39.841Z,3.50
2018-09-01T04:26:06.936Z,3.13
2018-09-01T04:28:34.072Z,3.23
2018-09-01T04:31:01.217Z,2.70
2018-09-01T04:33:28.394Z,3.40
2018-09-01T04:35:55.538Z,3.40
2018-09-01T04:38:22.697Z,2.70
2018-09-01T04:40:49.884Z,3.10
2018-09-01T04:43:17.070Z,3.10
2018-09-01T04:45:44.256Z,2.87
2018-09-01T04:48:11.984Z,2.70
2018-09-01T04:50:39.303Z,2.77
2018-09-01T04:53:06.532Z,2.67
2018-09-01T04:55:33.911Z,2.90
2018-09-01T04:58:01.067Z,3.17
2018-09-01T05:00:28.217Z,2.60
2018-09-01T05:02:55.388Z,2.73
2018-09-01T05:05:22.535Z,3.20
2018-09-01T05:07:49.658Z,2.70
2018-09-01T05:10:17.754Z,2.77
2018-09-01T05:12:44.989Z,2.40
2018-09-01T05:15:12.132Z,3.00
2018-09-01T05:17:39.299Z,2.50
2018-09-01T05:20:06.486Z,2.70
2018-09-01T05:22:33.642Z,2.47
2018-09-01T05:25:00.853Z,2.97
2018-09-01T05:27:28.009Z,2.60
2018-09-01T05:29:55.172Z,2.77
2018-09-01T05:32:22.414Z,2.50
2018-09-01T05:34:49.528Z,3.03
2018-09-01T05:37:16.653Z,2.90
2018-09-01T05:39:43.897Z,2.70
2018-09-01T05:42:11.023Z,3.00
2018-09-01T05:44:38.179Z,2.70
2018-09-01T05:47:05.384Z,2.77
2018-09-01T05:49:32.562Z,2.57
2018-09-01T05:51:59.769Z,2.80
2018-09-01T05:54:27.016Z,2.87
2018-09-01T05:56:54.197Z,2.67
2018-09-01T05:59:21.376Z,2.90
2018-09-01T06:01:48.514Z,3.40
2018-09-01T06:04:15.623Z,3.03
2018-09-01T06:06:42.818Z,2.90
2018-09-01T06:09:10.485Z,3.00
2018-09-01T06:11:37.623Z,3.13
2018-09-01T06:14:05.046Z,3.57
2018-09-01T06:16:32.237Z,3.67
2018-09-01T06:18:59.318Z,2.70
2018-09-01T06:21:26.467Z,2.63
2018-09-01T06:23:53.599Z,2.50
2018-09-01T06:26:20.732Z,2.80
2018-09-01T06:28:51.478Z,2.80
2018-09-01T06:31:19.499Z,3.07
2018-09-01T06:33:46.689Z,3.37
2018-09-01T06:36:14.178Z,3.43
2018-09-01T06:38:41.385Z,2.90
2018-09-01T06:41:08.507Z,3.30
2018-09-01T06:43:35.698Z,3.67
2018-09-01T06:46:02.931Z,3.33
2018-09-01T06:48:30.095Z,3.30
2018-09-01T06:50:57.413Z,3.47
2018-09-01T06:53:24.581Z,3.77
2018-09-01T06:55:52.310Z,3.37
2018-09-01T06:58:22.077Z,3.53
2018-09-01T07:00:50.522Z,3.70
2018-09-01T07:03:17.678Z,3.30
2018-09-01T07:05:44.810Z,3.90
2018-09-01T07:08:11.982Z,4.43
2018-09-01T07:10:39.116Z,3.93
2018-09-01T07:13:06.261Z,4.17
2018-09-01T07:15:33.468Z,4.20
2018-09-01T07:18:00.662Z,3.97
2018-09-01T07:20:27.845Z,6.53
2018-09-01T07:22:55.010Z,4.00
2018-09-01T07:25:22.113Z,3.77
2018-09-01T07:27:49.263Z,3.60
2018-09-01T07:30:16.525Z,3.70
2018-09-01T07:32:43.622Z,4.17
2018-09-01T07:35:10.761Z,3.70
2018-09-01T07:37:37.929Z,4.63
2018-09-01T07:40:05.158Z,4.10
2018-09-01T07:42:32.370Z,4.27
2018-09-01T07:44:59.637Z,4.10
2018-09-01T07:47:26.993Z,3.40
2018-09-01T07:49:54.788Z,3.87
2018-09-01T07:52:22.024Z,4.00
2018-09-01T07:54:49.215Z,3.57
2018-09-01T07:57:16.541Z,3.50
2018-09-01T07:59:43.834Z,3.87
2018-09-01T08:02:11.035Z,3.83
2018-09-01T08:04:38.286Z,2.80
2018-09-01T08:07:05.433Z,3.80
2018-09-01T08:09:32.617Z,3.70
2018-09-01T08:11:59.728Z,3.70
2018-09-01T08:14:26.940Z,3.70
2018-09-01T08:16:54.085Z,3.80
2018-09-01T08:19:21.316Z,4.27
2018-09-01T08:21:48.844Z,3.60
2018-09-01T08:24:16.209Z,3.00
2018-09-01T08:26:43.396Z,3.43
2018-09-01T08:29:10.533Z,3.57
2018-09-01T08:31:37.689Z,3.17
2018-09-01T08:34:05.041Z,2.43
2018-09-01T08:36:32.179Z,2.80
2018-09-01T08:38:59.292Z,2.10
2018-09-01T08:41:26.519Z,1.90
2018-09-01T08:43:53.700Z,2.30
2018-09-01T08:46:20.894Z,2.10
2018-09-01T08:48:48.056Z,2.00
2018-09-01T08:51:15.222Z,1.90
2018-09-01T08:53:42.454Z,1.83
2018-09-01T08:56:09.677Z,2.40
2018-09-01T08:58:36.799Z,2.10
2018-09-01T09:01:04.017Z,2.13
2018-09-01T09:03:31.591Z,2.03
2018-09-01T09:05:58.783Z,2.63
2018-09-01T09:08:25.972Z,2.10
2018-09-01T09:10:53.151Z,2.13
2018-09-01T09:13:20.335Z,2.63
2018-09-01T09:15:47.466Z,2.30
2018-09-01T09:18:14.701Z,2.20
2018-09-01T09:20:42.021Z,2.13
2018-09-01T09:23:09.205Z,1.80
2018-09-01T09:25:36.330Z,2.47
2018-09-01T09:28:03.474Z,2.50
2018-09-01T09:30:30.620Z,1.90
2018-09-01T09:32:57.853Z,2.00
2018-09-01T09:35:24.978Z,2.00
2018-09-01T09:37:52.246Z,2.10
2018-09-01T09:40:19.505Z,3.13
2018-09-01T09:42:46.631Z,2.10
2018-09-01T09:45:13.778Z,1.80
2018-09-01T09:47:40.900Z,2.00
2018-09-01T09:50:08.041Z,2.10
2018-09-01T09:52:35.176Z,1.93
2018-09-01T09:55:02.364Z,2.07
2018-09-01T09:57:29.530Z,2.20
2018-09-01T09:59:56.698Z,1.93
2018-09-01T10:02:23.865Z,2.50
2018-09-01T10:04:51.001Z,1.73
2018-09-01T10:07:18.181Z,2.80
2018-09-01T10:09:45.320Z,1.93
2018-09-01T10:12:12.550Z,2.10
2018-09-01T10:14:39.776Z,1.80
2018-09-01T10:17:06.911Z,2.30
2018-09-01T10:19:34.078Z,1.90
2018-09-01T10:22:01.268Z,1.83
2018-09-01T10:24:28.575Z,2.33
2018-09-01T10:26:55.801Z,2.33
2018-09-01T10:29:22.962Z,2.03
2018-09-01T10:31:50.125Z,2.43
2018-09-01T10:34:17.292Z,2.73
2018-09-01T10:36:44.497Z,2.00
2018-09-01T10:39:11.674Z,1.97
2018-09-01T10:41:38.894Z,1.97
2018-09-01T10:44:06.997Z,2.33
2018-09-01T10:46:34.215Z,1.90
2018-09-01T10:49:01.350Z,2.23
2018-09-01T10:51:28.505Z,1.87
2018-09-01T10:53:55.639Z,1.77
2018-09-01T10:56:22.789Z,3.00
2018-09-01T10:58:49.963Z,2.43
2018-09-01T11:01:17.945Z,2.13
2018-09-01T11:03:45.067Z,2.20
2018-09-01T11:06:12.305Z,2.77
2018-09-01T11:08:39.567Z,2.00
2018-09-01T11:11:06.669Z,1.93
2018-09-01T11:13:33.770Z,1.80
2018-09-01T11:16:00.934Z,2.03
2018-09-01T11:18:28.714Z,2.00
2018-09-01T11:20:55.928Z,2.50
2018-09-01T11:23:23.030Z,2.63
2018-09-01T11:25:50.118Z,2.20
2018-09-01T11:28:17.255Z,1.90
2018-09-01T11:30:44.402Z,1.90
2018-09-01T11:33:11.530Z,3.10
2018-09-01T11:35:38.771Z,3.10
2018-09-01T11:38:07.370Z,2.00
2018-09-01T11:40:34.696Z,2.20
2018-09-01T11:43:02.436Z,2.50
2018-09-01T11:45:29.471Z,1.80
2018-09-01T11:47:56.737Z,1.93
2018-09-01T11:50:23.876Z,2.03
2018-09-01T11:52:51.118Z,2.63
2018-09-01T11:55:18.227Z,2.13
2018-09-01T11:57:45.376Z,7.50
2018-09-01T12:00:12.539Z,3.90
2018-09-01T12:02:39.643Z,3.10
2018-09-01T12:05:06.774Z,2.00
2018-09-01T12:07:33.975Z,2.00
2018-09-01T12:10:01.286Z,2.13
2018-09-01T12:12:29.051Z,1.93
2018-09-01T12:14:56.236Z,1.70
2018-09-01T12:17:23.349Z,2.00
2018-09-01T12:19:50.582Z,1.90
2018-09-01T12:22:19.721Z,1.90
2018-09-01T12:24:46.821Z,1.83
2018-09-01T12:27:13.997Z,2.07
2018-09-01T12:29:41.270Z,1.70
2018-09-01T12:32:08.406Z,1.60
2018-09-01T12:34:35.602Z,1.83
2018-09-01T12:37:02.699Z,1.90
2018-09-01T12:39:29.854Z,1.60
2018-09-01T12:41:57.047Z,2.03
2018-09-01T12:44:24.187Z,1.70
2018-09-01T12:46:51.342Z,2.13
2018-09-01T12:49:18.465Z,2.30
2018-09-01T12:51:45.630Z,2.57
2018-09-01T12:54:13.034Z,2.73
2018-09-01T12:56:40.789Z,2.00
2018-09-01T12:59:07.968Z,1.93
2018-09-01T13:01:35.519Z,1.80
2018-09-01T13:04:02.677Z,1.60
2018-09-01T13:06:29.872Z,1.70
2018-09-01T13:08:57.039Z,1.93
2018-09-01T13:11:24.445Z,1.90
2018-09-01T13:13:51.649Z,1.83
2018-09-01T13:16:18.803Z,1.47
2018-09-01T13:18:45.937Z,2.17
2018-09-01T13:21:13.039Z,1.80
2018-09-01T13:23:40.491Z,1.80
2018-09-01T13:26:07.652Z,1.80
2018-09-01T13:28:34.934Z,1.97
2018-09-01T13:31:02.083Z,1.80
2018-09-01T13:33:29.229Z,2.30
2018-09-01T13:35:57.821Z,1.60
2018-09-01T13:38:25.118Z,1.90
2018-09-01T13:40:52.326Z,1.93
2018-09-01T13:43:19.453Z,2.67
2018-09-01T13:45:46.620Z,1.87
2018-09-01T13:48:13.792Z,1.50
2018-09-01T13:50:40.935Z,2.10
2018-09-01T13:53:08.079Z,1.80
2018-09-01T13:55:35.691Z,1.57
2018-09-01T13:58:04.408Z,1.80
2018-09-01T14:00:31.709Z,1.90
2018-09-01T14:02:58.881Z,2.10
2018-09-01T14:05:26.083Z,1.73
2018-09-01T14:07:53.446Z,2.00
2018-09-01T14:10:20.606Z,1.70
2018-09-01T14:12:47.871Z,1.93
2018-09-01T14:15:15.042Z,1.70
2018-09-01T14:17:42.182Z,1.70
2018-09-01T14:20:09.359Z,2.00
2018-09-01T14:22:36.951Z,1.90
2018-09-01T14:25:05.131Z,1.50
2018-09-01T14:27:32.254Z,1.77
2018-09-01T14:29:59.401Z,2.10
2018-09-01T14:32:26.506Z,2.03
2018-09-01T14:34:53.994Z,1.43
2018-09-01T14:37:21.159Z,1.60
2018-09-01T14:39:48.358Z,1.90
2018-09-01T14:42:15.523Z,2.40
2018-09-01T14:44:42.716Z,1.70
2018-09-01T14:47:09.882Z,1.90
2018-09-01T14:49:37.106Z,1.90
2018-09-01T14:52:04.283Z,1.73
2018-09-01T14:54:31.501Z,1.70
2018-09-01T14:56:58.606Z,2.03
2018-09-01T14:59:25.747Z,1.93
2018-09-01T15:01:52.910Z,2.17
2018-09-01T15:04:20.016Z,1.97
2018-09-01T15:06:47.218Z,2.27
2018-09-01T15:09:14.362Z,1.60
2018-09-01T15:11:41.655Z,2.03
2018-09-01T15:14:09.725Z,2.10
2018-09-01T15:16:36.885Z,2.47
2018-09-01T15:19:04.087Z,2.10
2018-09-01T15:21:31.232Z,1.73
2018-09-01T15:23:58.362Z,1.80
2018-09-01T15:26:25.602Z,2.07
2018-09-01T15:28:54.230Z,2.87
2018-09-01T15:31:21.617Z,2.03
2018-09-01T15:33:48.743Z,1.90
2018-09-01T15:36:16.458Z,2.60
2018-09-01T15:38:43.622Z,4.40
2018-09-01T15:41:11.607Z,1.80
2018-09-01T15:43:38.892Z,1.70
2018-09-01T15:46:06.297Z,2.43
2018-09-01T15:48:33.522Z,2.67
2018-09-01T15:51:00.702Z,1.90
2018-09-01T15:53:27.932Z,1.80
2018-09-01T15:55:55.141Z,2.07
2018-09-01T15:58:22.269Z,1.90
2018-09-01T16:00:49.463Z,7.40
2018-09-01T16:03:16.646Z,1.87
2018-09-01T16:05:43.763Z,1.93
2018-09-01T16:08:10.906Z,1.97
2018-09-01T16:10:38.055Z,2.20
2018-09-01T16:13:05.522Z,2.17
2018-09-01T16:15:32.768Z,2.83
2018-09-01T16:17:59.925Z,2.40
2018-09-01T16:20:27.118Z,2.10
2018-09-01T16:22:54.413Z,1.73
2018-09-01T16:25:21.529Z,1.70
2018-09-01T16:27:48.786Z,1.87
2018-09-01T16:30:15.900Z,1.47
2018-09-01T16:32:43.061Z,1.97
2018-09-01T16:35:10.207Z,1.83
2018-09-01T16:37:37.373Z,2.33
2018-09-01T16:40:05.185Z,2.30
2018-09-01T16:42:32.302Z,2.10
2018-09-01T16:44:59.428Z,2.10
2018-09-01T16:47:26.510Z,2.50
2018-09-01T16:49:53.677Z,2.43
2018-09-01T16:52:20.776Z,2.50
2018-09-01T16:54:47.915Z,2.20
2018-09-01T16:57:15.138Z,2.13
2018-09-01T16:59:42.319Z,3.00
2018-09-01T17:02:09.448Z,1.90
2018-09-01T17:04:36.571Z,2.40
2018-09-01T17:07:03.990Z,2.57
2018-09-01T17:09:31.140Z,4.10
2018-09-01T17:11:59.135Z,2.30
2018-09-01T17:14:26.809Z,4.27
2018-09-01T17:16:54.293Z,4.50
2018-09-01T17:19:21.394Z,2.50
2018-09-01T17:21:48.583Z,2.20
2018-09-01T17:24:15.722Z,2.27
2018-09-01T17:26:43.264Z,2.60
2018-09-01T17:29:10.356Z,3.27
2018-09-01T17:31:37.574Z,2.83
2018-09-01T17:34:04.715Z,3.53
2018-09-01T17:36:31.909Z,2.97
2018-09-01T17:38:59.039Z,2.80
2018-09-01T17:41:26.246Z,2.70
2018-09-01T17:43:53.328Z,2.20
2018-09-01T17:46:20.470Z,2.37
2018-09-01T17:48:47.602Z,2.10
2018-09-01T17:51:14.805Z,1.70
2018-09-01T17:53:41.985Z,2.50
2018-09-01T17:56:09.097Z,2.90
2018-09-01T17:58:36.280Z,5.23
2018-09-01T18:01:03.382Z,5.00
2018-09-01T18:03:30.558Z,5.77
2018-09-01T18:05:57.676Z,3.83
2018-09-01T18:08:24.800Z,3.10
2018-09-01T18:10:52.003Z,3.13
2018-09-01T18:13:19.082Z,4.47
2018-09-01T18:15:46.225Z,4.57
2018-09-01T18:18:14.835Z,4.07
2018-09-01T18:20:42.263Z,3.20
2018-09-01T18:23:09.476Z,2.73
2018-09-01T18:25:36.536Z,3.20
2018-09-01T18:28:03.821Z,3.70
2018-09-01T18:30:30.946Z,2.60
2018-09-01T18:32:58.099Z,2.60
2018-09-01T18:35:25.386Z,2.30
2018-09-01T18:37:52.433Z,3.20
2018-09-01T18:40:19.593Z,3.63
2018-09-01T18:42:46.860Z,2.93
2018-09-01T18:45:14.969Z,3.00
2018-09-01T18:47:42.406Z,4.13
2018-09-01T18:50:10.448Z,2.90
2018-09-01T18:52:37.694Z,2.53
2018-09-01T18:55:07.311Z,2.30
2018-09-01T18:57:34.470Z,2.30
2018-09-01T19:00:01.667Z,3.23
2018-09-01T19:02:28.914Z,4.27
2018-09-01T19:04:56.165Z,2.37
2018-09-01T19:07:23.233Z,3.17
2018-09-01T19:09:50.382Z,2.33
2018-09-01T19:12:17.528Z,2.53
2018-09-01T19:14:44.793Z,2.80
2018-09-01T19:17:12.012Z,2.40
2018-09-01T19:19:39.345Z,2.70
2018-09-01T19:22:06.502Z,2.73
2018-09-01T19:24:33.692Z,2.63
2018-09-01T19:27:01.531Z,4.13
2018-09-01T19:29:28.674Z,2.67
2018-09-01T19:31:55.906Z,2.70
2018-09-01T19:34:23.109Z,2.80
2018-09-01T19:36:50.294Z,2.50
2018-09-01T19:39:17.430Z,2.60
2018-09-01T19:41:44.589Z,3.13
2018-09-01T19:44:11.709Z,3.80
2018-09-01T19:46:39.779Z,4.20
2018-09-01T19:49:07.198Z,4.43
2018-09-01T19:51:34.471Z,4.13
2018-09-01T19:54:01.657Z,3.97
2018-09-01T19:56:28.799Z,4.07
2018-09-01T19:58:56.971Z,3.80
2018-09-01T20:01:24.351Z,5.80
2018-09-01T20:03:51.516Z,3.13
2018-09-01T20:06:18.689Z,3.60
2018-09-01T20:08:45.790Z,2.60
2018-09-01T20:11:12.926Z,3.90
2018-09-01T20:13:40.117Z,3.40
2018-09-01T20:16:07.288Z,2.80
2018-09-01T20:18:34.394Z,2.90
2018-09-01T20:21:01.589Z,2.80
2018-09-01T20:23:28.820Z,2.60
2018-09-01T20:25:55.922Z,2.90
2018-09-01T20:28:23.078Z,2.27
2018-09-01T20:30:50.237Z,2.40
2018-09-01T20:33:17.393Z,2.20
2018-09-01T20:35:50.246Z,2.80
2018-09-01T20:38:17.417Z,2.30
2018-09-01T20:40:44.556Z,3.17
2018-09-01T20:43:11.670Z,2.20
2018-09-01T20:45:38.825Z,2.70
2018-09-01T20:48:06.071Z,2.70
2018-09-01T20:50:33.188Z,2.67
2018-09-01T20:53:00.324Z,2.00
2018-09-01T20:55:27.459Z,2.17
2018-09-01T20:57:54.648Z,4.50
2018-09-01T21:00:23.903Z,8.27
2018-09-01T21:02:51.051Z,2.53
2018-09-01T21:05:18.218Z,2.90
2018-09-01T21:07:45.345Z,3.20
2018-09-01T21:10:12.474Z,2.20
2018-09-01T21:12:39.651Z,3.60
2018-09-01T21:15:06.797Z,2.30
2018-09-01T21:17:33.922Z,2.50
2018-09-01T21:20:01.046Z,2.20
2018-09-01T21:22:28.247Z,2.47
2018-09-01T21:24:55.374Z,2.20
2018-09-01T21:27:22.501Z,2.30
2018-09-01T21:29:49.638Z,2.00
2018-09-01T21:32:16.769Z,2.30
2018-09-01T21:34:44.150Z,2.47
2018-09-01T21:37:11.245Z,2.40
2018-09-01T21:39:38.426Z,2.43
2018-09-01T21:42:05.586Z,2.43
2018-09-01T21:44:32.718Z,2.83
2018-09-01T21:46:59.834Z,2.20
2018-09-01T21:49:27.133Z,2.87
2018-09-01T21:51:54.350Z,5.17
2018-09-01T21:54:21.455Z,4.60
2018-09-01T21:56:48.645Z,2.60
2018-09-01T21:59:15.771Z,3.00
2018-09-01T22:01:47.521Z,2.50
2018-09-01T22:04:14.627Z,2.30
2018-09-01T22:06:41.954Z,2.80
2018-09-01T22:09:10.738Z,2.70
2018-09-01T22:11:37.903Z,2.50
2018-09-01T22:14:05.027Z,2.10
2018-09-01T22:16:32.282Z,2.10
2018-09-01T22:18:59.429Z,2.57
2018-09-01T22:21:26.610Z,2.03
2018-09-01T22:23:54.145Z,2.53
2018-09-01T22:26:21.321Z,2.30
2018-09-01T22:28:48.502Z,2.60
2018-09-01T22:31:15.730Z,2.10
2018-09-01T22:33:42.834Z,2.23
2018-09-01T22:36:10.027Z,2.10
2018-09-01T22:38:37.293Z,1.83
2018-09-01T22:41:04.467Z,2.13
2018-09-01T22:43:31.724Z,1.63
2018-09-01T22:45:58.849Z,2.30
2018-09-01T22:48:26.025Z,2.20
2018-09-01T22:50:53.194Z,1.93
2018-09-01T22:53:20.354Z,2.17
2018-09-01T22:55:47.941Z,2.10
2018-09-01T22:58:15.261Z,1.80
2018-09-01T23:00:42.429Z,2.07
2018-09-01T23:03:09.559Z,2.17
2018-09-01T23:05:36.646Z,2.10
2018-09-01T23:08:03.916Z,1.70
2018-09-01T23:10:31.057Z,2.10
2018-09-01T23:12:58.170Z,2.07
2018-09-01T23:15:25.266Z,2.37
2018-09-01T23:17:52.398Z,2.40
2018-09-01T23:20:19.494Z,1.80
2018-09-01T23:22:46.680Z,2.13
2018-09-01T23:25:13.946Z,1.93
2018-09-01T23:27:41.075Z,2.20
2018-09-01T23:30:08.269Z,2.20
2018-09-01T23:32:35.397Z,2.03
2018-09-01T23:35:02.507Z,2.07
2018-09-01T23:37:29.859Z,1.90
2018-09-01T23:39:57.005Z,2.60
2018-09-01T23:42:24.137Z,2.30
2018-09-01T23:44:51.269Z,3.20
2018-09-01T23:47:18.389Z,2.13
2018-09-01T23:49:45.558Z,2.30
2018-09-01T23:52:12.825Z,2.10
2018-09-01T23:54:39.942Z,1.80
2018-09-01T23:57:07.046Z,2.37
2018-09-01T23:59:34.211Z,1.90
